createdAt,value
2022-11-14T06:03:05.081Z,93.40
2022-11-14T06:08:28.768Z,93.30
2022-11-14T06:13:50.724Z,93.50
2022-11-14T06:19:13.899Z,93.40
2022-11-14T06:24:36.223Z,93.30
2022-11-14T06:29:58.036Z,93.30
2022-11-14T06:35:21.407Z,93.40
2022-11-14T06:40:43.117Z,93.30
2022-11-14T06:46:05.707Z,93.20
2022-11-14T06:51:28.773Z,93.50
2022-11-14T06:56:50.683Z,93.50
2022-11-14T07:02:17.748Z,93.60
2022-11-14T07:07:45.162Z,93.60
2022-11-14T07:13:06.938Z,93.70
2022-11-14T07:18:31.019Z,93.70
2022-11-14T07:23:54.505Z,93.60
2022-11-14T07:29:16.422Z,93.80
2022-11-14T07:34:37.958Z,93.90
2022-11-14T07:40:01.190Z,93.90
2022-11-14T07:45:23.189Z,93.90
2022-11-14T07:50:47.224Z,94.00
2022-11-14T07:56:11.089Z,94.10
2022-11-14T08:01:32.744Z,94.10
2022-11-14T08:06:54.357Z,94.10
2022-11-14T08:12:18.027Z,94.30
2022-11-14T08:17:40.766Z,94.30
2022-11-14T08:23:07.150Z,94.40
2022-11-14T08:28:30.992Z,94.50
2022-11-14T08:33:53.759Z,94.60
2022-11-14T08:39:15.775Z,94.60
2022-11-14T08:44:38.921Z,94.70
2022-11-14T08:50:00.827Z,94.90
2022-11-14T08:55:22.429Z,95.10
2022-11-14T09:00:45.624Z,95.40
2022-11-14T09:06:07.675Z,95.50
2022-11-14T09:11:29.774Z,95.60
2022-11-14T09:16:52.904Z,95.40
2022-11-14T09:22:14.752Z,95.30
2022-11-14T09:27:36.423Z,95.20
2022-11-14T09:33:05.755Z,95.10
2022-11-14T09:38:37.013Z,95.20
2022-11-14T09:44:27.040Z,95.30
2022-11-14T09:49:53.057Z,95.30
2022-11-14T09:55:18.592Z,95.20
2022-11-14T10:00:50.049Z,95.30
2022-11-14T10:06:24.411Z,95.40
2022-11-14T10:11:52.695Z,95.60
2022-11-14T10:17:28.210Z,95.80
2022-11-14T10:23:04.878Z,96.10
2022-11-14T10:28:39.748Z,96.50
2022-11-14T10:34:07.274Z,96.80
2022-11-14T10:39:36.329Z,96.90
2022-11-14T10:45:03.394Z,96.70
2022-11-14T10:50:29.825Z,96.30
2022-11-14T10:56:04.403Z,96.40
2022-11-14T11:01:37.534Z,96.80
2022-11-14T11:07:34.108Z,97.10
2022-11-14T11:12:57.691Z,97.20
2022-11-14T11:18:28.530Z,97.40
2022-11-14T11:23:52.389Z,97.50
2022-11-14T11:29:20.873Z,97.20
2022-11-14T11:34:42.740Z,97.20
2022-11-14T11:40:07.365Z,96.90
2022-11-14T11:45:31.525Z,96.90
2022-11-14T11:50:53.532Z,97.00
2022-11-14T11:56:18.851Z,96.90
2022-11-14T12:01:42.130Z,97.70
2022-11-14T12:07:09.160Z,96.20
2022-11-14T12:12:50.331Z,95.60
2022-11-14T12:18:54.034Z,95.80
2022-11-14T12:24:52.650Z,96.40
2022-11-14T12:30:18.707Z,96.60
2022-11-14T12:35:51.116Z,97.10
2022-11-14T12:41:14.010Z,95.90
2022-11-14T12:47:16.248Z,95.00
2022-11-14T12:52:49.481Z,95.20
2022-11-14T12:58:12.849Z,95.60
2022-11-14T13:03:49.041Z,95.90
2022-11-14T13:09:36.768Z,96.20
2022-11-14T13:15:15.938Z,96.50
2022-11-14T13:20:55.399Z,96.50
2022-11-14T13:26:41.131Z,96.50
2022-11-14T13:32:02.572Z,95.70
2022-11-14T13:37:42.131Z,95.50
2022-11-14T13:43:15.459Z,95.80
2022-11-14T13:49:05.138Z,94.70
2022-11-14T13:54:28.954Z,92.80
2022-11-14T14:00:18.385Z,92.50
2022-11-14T14:06:05.935Z,93.40
2022-11-14T14:11:44.842Z,94.00
2022-11-14T14:17:14.856Z,93.60
2022-11-14T14:22:43.457Z,92.60
2022-11-14T14:28:16.078Z,91.40
2022-11-14T14:33:43.782Z,90.40
2022-11-14T14:39:18.307Z,90.10
2022-11-14T14:44:41.206Z,89.80
2022-11-14T14:50:07.600Z,89.70
2022-11-14T14:55:32.385Z,89.00
2022-11-14T15:00:56.583Z,88.40
2022-11-14T15:06:30.007Z,87.20
2022-11-14T15:11:54.845Z,87.30
2022-11-14T15:17:17.607Z,88.60
2022-11-14T15:22:41.427Z,89.60
2022-11-14T15:28:03.338Z,90.00
2022-11-14T15:33:30.328Z,90.10
2022-11-14T15:39:06.317Z,90.20
2022-11-14T15:44:32.038Z,90.20
2022-11-14T15:49:59.437Z,90.30
2022-11-14T15:55:24.539Z,90.40
2022-11-14T16:00:48.957Z,90.30
2022-11-14T16:06:12.168Z,90.10
2022-11-14T16:11:35.138Z,90.00
2022-11-14T16:16:57.032Z,89.70
2022-11-14T16:22:19.267Z,90.00
2022-11-14T16:27:42.350Z,90.30
2022-11-14T16:33:04.408Z,90.30
2022-11-14T16:38:26.483Z,90.20
2022-11-14T16:43:49.649Z,90.50
2022-11-14T16:49:14.900Z,90.70
2022-11-14T16:54:36.811Z,90.90
2022-11-14T17:00:00.123Z,90.90
2022-11-14T17:05:22.063Z,90.90
2022-11-14T17:10:44.663Z,90.80
2022-11-14T17:16:08.939Z,90.70
2022-11-14T17:21:30.664Z,90.80
2022-11-14T17:26:52.341Z,90.60
2022-11-14T17:32:15.647Z,90.40
2022-11-14T17:37:37.623Z,90.40
2022-11-14T17:42:59.239Z,90.30
2022-11-14T17:48:22.129Z,90.30
2022-11-14T17:53:44.548Z,90.40
2022-11-14T17:59:06.261Z,90.50
2022-11-14T18:04:31.133Z,90.50
2022-11-14T18:09:52.708Z,90.30
2022-11-14T18:15:15.151Z,90.00
2022-11-14T18:20:40.188Z,90.00
2022-11-14T18:26:02.083Z,90.10
2022-11-14T18:31:24.272Z,90.10
2022-11-14T18:36:47.514Z,90.10
2022-11-14T18:42:09.508Z,90.30
2022-11-14T18:47:31.345Z,90.20
2022-11-14T18:52:54.699Z,90.10
2022-11-14T18:58:16.593Z,89.90
2022-11-14T19:03:38.575Z,90.00
2022-11-14T19:09:10.626Z,90.20
2022-11-14T19:14:32.940Z,90.40
2022-11-14T19:19:54.872Z,90.30
2022-11-14T19:25:18.002Z,90.20
2022-11-14T19:30:40.001Z,90.30
2022-11-14T19:36:07.415Z,90.20
2022-11-14T19:41:32.397Z,90.10
2022-11-14T19:46:54.395Z,90.00
2022-11-14T19:52:18.058Z,89.90
2022-11-14T19:57:41.833Z,90.00
2022-11-14T20:03:03.606Z,90.10
2022-11-14T20:08:25.507Z,90.00
2022-11-14T20:13:48.803Z,89.70
2022-11-14T20:19:10.595Z,89.20
2022-11-14T20:24:32.588Z,89.40
2022-11-14T20:29:55.677Z,89.10
2022-11-14T20:35:17.636Z,89.00
2022-11-14T20:40:39.662Z,89.40
2022-11-14T20:46:04.243Z,90.00
2022-11-14T20:51:27.489Z,90.10
2022-11-14T20:56:49.529Z,90.30
2022-11-14T21:02:14.622Z,90.40
2022-11-14T21:07:36.364Z,90.30
2022-11-14T21:13:16.097Z,90.50
2022-11-14T21:18:42.784Z,90.50
2022-11-14T21:24:09.115Z,90.60
2022-11-14T21:29:30.972Z,90.70
2022-11-14T21:34:54.264Z,90.70
2022-11-14T21:40:16.280Z,90.60
2022-11-14T21:45:38.287Z,90.60
2022-11-14T21:51:09.519Z,90.20
2022-11-14T21:56:32.675Z,90.40
2022-11-14T22:02:11.956Z,90.40
2022-11-14T22:07:35.768Z,90.40
2022-11-14T22:12:58.442Z,90.50
2022-11-14T22:18:20.365Z,90.40
2022-11-14T22:23:44.157Z,90.50
2022-11-14T22:29:06.006Z,90.80
2022-11-14T22:34:27.887Z,90.90
2022-11-14T22:39:50.822Z,91.00
2022-11-14T22:45:12.620Z,91.30
2022-11-14T22:50:34.323Z,91.60
2022-11-14T22:55:57.354Z,91.70
2022-11-14T23:01:21.031Z,91.70
2022-11-14T23:06:42.894Z,91.90
2022-11-14T23:12:06.587Z,91.90
2022-11-14T23:17:28.714Z,92.00
2022-11-14T23:22:50.610Z,92.00
2022-11-14T23:28:13.691Z,92.10
